sensor_id;sensor_type;location;lat;lon;timestamp;P1;durP1;ratioP1;P2;durP2;ratioP2
9240;SDS011;53485;49.326;9.738;2023-03-19T00:00:42;3.80;;;2.90;;
9240;SDS011;53485;49.326;9.738;2023-03-19T00:03:09;5.80;;;3.87;;
9240;SDS011;53485;49.326;9.738;2023-03-19T00:05:36;4.47;;;3.80;;
9240;SDS011;53485;49.326;9.738;2023-03-19T00:08:02;5.83;;;4.07;;
9240;SDS011;53485;49.326;9.738;2023-03-19T00:10:29;4.53;;;3.60;;
9240;SDS011;53485;49.326;9.738;2023-03-19T00:12:55;5.43;;;3.80;;
9240;SDS011;53485;49.326;9.738;2023-03-19T00:15:22;6.20;;;4.00;;
9240;SDS011;53485;49.326;9.738;2023-03-19T00:17:48;7.77;;;3.93;;
9240;SDS011;53485;49.326;9.738;2023-03-19T00:20:15;5.07;;;3.67;;
9240;SDS011;53485;49.326;9.738;2023-03-19T00:22:41;5.73;;;4.60;;
9240;SDS011;53485;49.326;9.738;2023-03-19T00:25:08;7.97;;;4.37;;
9240;SDS011;53485;49.326;9.738;2023-03-19T00:27:35;4.43;;;3.17;;
9240;SDS011;53485;49.326;9.738;2023-03-19T00:30:00;3.50;;;3.20;;
9240;SDS011;53485;49.326;9.738;2023-03-19T00:32:27;5.67;;;3.50;;
9240;SDS011;53485;49.326;9.738;2023-03-19T00:34:53;5.00;;;3.60;;
9240;SDS011;53485;49.326;9.738;2023-03-19T00:37:20;5.87;;;3.87;;
9240;SDS011;53485;49.326;9.738;2023-03-19T00:39:46;4.90;;;3.50;;
9240;SDS011;53485;49.326;9.738;2023-03-19T00:42:13;3.70;;;3.40;;
9240;SDS011;53485;49.326;9.738;2023-03-19T00:44:39;5.07;;;3.90;;
9240;SDS011;53485;49.326;9.738;2023-03-19T00:47:06;8.00;;;4.47;;
9240;SDS011;53485;49.326;9.738;2023-03-19T00:49:32;9.77;;;4.17;;
9240;SDS011;53485;49.326;9.738;2023-03-19T00:51:59;4.00;;;2.93;;
9240;SDS011;53485;49.326;9.738;2023-03-19T00:54:25;7.10;;;3.67;;
9240;SDS011;53485;49.326;9.738;2023-03-19T00:56:51;5.03;;;3.20;;
9240;SDS011;53485;49.326;9.738;2023-03-19T00:59:18;3.07;;;2.83;;
9240;SDS011;53485;49.326;9.738;2023-03-19T01:01:45;5.93;;;3.33;;
9240;SDS011;53485;49.326;9.738;2023-03-19T01:04:11;3.73;;;3.17;;
9240;SDS011;53485;49.326;9.738;2023-03-19T01:06:38;4.87;;;2.90;;
9240;SDS011;53485;49.326;9.738;2023-03-19T01:09:04;3.93;;;2.43;;
9240;SDS011;53485;49.326;9.738;2023-03-19T01:11:31;5.00;;;2.30;;
9240;SDS011;53485;49.326;9.738;2023-03-19T01:13:57;6.93;;;2.87;;
9240;SDS011;53485;49.326;9.738;2023-03-19T01:16:24;4.83;;;2.70;;
9240;SDS011;53485;49.326;9.738;2023-03-19T01:18:51;5.13;;;2.60;;
9240;SDS011;53485;49.326;9.738;2023-03-19T01:21:17;7.03;;;3.13;;
9240;SDS011;53485;49.326;9.738;2023-03-19T01:23:44;6.47;;;3.07;;
9240;SDS011;53485;49.326;9.738;2023-03-19T01:26:10;4.50;;;2.67;;
9240;SDS011;53485;49.326;9.738;2023-03-19T01:28:37;5.13;;;2.57;;
9240;SDS011;53485;49.326;9.738;2023-03-19T01:31:05;4.27;;;2.50;;
9240;SDS011;53485;49.326;9.738;2023-03-19T01:33:30;3.83;;;2.40;;
9240;SDS011;53485;49.326;9.738;2023-03-19T01:35:57;4.30;;;2.37;;
9240;SDS011;53485;49.326;9.738;2023-03-19T01:38:23;3.50;;;2.60;;
9240;SDS011;53485;49.326;9.738;2023-03-19T01:40:49;3.80;;;2.30;;
9240;SDS011;53485;49.326;9.738;2023-03-19T01:43:17;4.27;;;2.13;;
9240;SDS011;53485;49.326;9.738;2023-03-19T01:45:42;3.87;;;2.60;;
9240;SDS011;53485;49.326;9.738;2023-03-19T01:48:18;3.50;;;1.80;;
9240;SDS011;53485;49.326;9.738;2023-03-19T01:50:45;3.00;;;1.90;;
9240;SDS011;53485;49.326;9.738;2023-03-19T01:53:11;6.17;;;2.40;;
9240;SDS011;53485;49.326;9.738;2023-03-19T01:55:38;3.80;;;2.03;;
9240;SDS011;53485;49.326;9.738;2023-03-19T01:58:04;4.97;;;2.10;;
9240;SDS011;53485;49.326;9.738;2023-03-19T02:00:30;3.90;;;2.17;;
9240;SDS011;53485;49.326;9.738;2023-03-19T02:02:57;4.07;;;2.77;;
9240;SDS011;53485;49.326;9.738;2023-03-19T02:05:22;3.53;;;2.10;;
9240;SDS011;53485;49.326;9.738;2023-03-19T02:07:53;2.73;;;1.97;;
9240;SDS011;53485;49.326;9.738;2023-03-19T02:10:19;5.77;;;2.57;;
9240;SDS011;53485;49.326;9.738;2023-03-19T02:12:45;5.30;;;2.20;;
9240;SDS011;53485;49.326;9.738;2023-03-19T02:15:11;3.73;;;1.70;;
9240;SDS011;53485;49.326;9.738;2023-03-19T02:17:38;3.60;;;1.97;;
9240;SDS011;53485;49.326;9.738;2023-03-19T02:20:14;2.67;;;2.03;;
9240;SDS011;53485;49.326;9.738;2023-03-19T02:22:45;4.90;;;3.50;;
9240;SDS011;53485;49.326;9.738;2023-03-19T02:25:10;3.80;;;3.50;;
9240;SDS011;53485;49.326;9.738;2023-03-19T02:27:35;5.80;;;3.93;;
9240;SDS011;53485;49.326;9.738;2023-03-19T02:30:33;3.33;;;3.03;;
9240;SDS011;53485;49.326;9.738;2023-03-19T02:32:42;4.83;;;3.53;;
9240;SDS011;53485;49.326;9.738;2023-03-19T02:35:09;4.97;;;3.27;;
9240;SDS011;53485;49.326;9.738;2023-03-19T02:37:36;5.57;;;3.10;;
9240;SDS011;53485;49.326;9.738;2023-03-19T02:40:03;4.53;;;2.67;;
9240;SDS011;53485;49.326;9.738;2023-03-19T02:42:29;4.63;;;3.00;;
9240;SDS011;53485;49.326;9.738;2023-03-19T02:44:55;3.93;;;2.93;;
9240;SDS011;53485;49.326;9.738;2023-03-19T02:47:22;3.17;;;2.40;;
9240;SDS011;53485;49.326;9.738;2023-03-19T02:49:48;3.30;;;3.00;;
9240;SDS011;53485;49.326;9.738;2023-03-19T02:52:14;6.43;;;2.60;;
9240;SDS011;53485;49.326;9.738;2023-03-19T02:54:40;2.77;;;2.53;;
9240;SDS011;53485;49.326;9.738;2023-03-19T02:57:07;3.87;;;2.47;;
9240;SDS011;53485;49.326;9.738;2023-03-19T02:59:34;4.30;;;2.00;;
9240;SDS011;53485;49.326;9.738;2023-03-19T03:02:00;2.57;;;1.60;;
9240;SDS011;53485;49.326;9.738;2023-03-19T03:04:26;3.60;;;1.40;;
9240;SDS011;53485;49.326;9.738;2023-03-19T03:06:53;3.80;;;1.40;;
9240;SDS011;53485;49.326;9.738;2023-03-19T03:09:19;2.40;;;1.67;;
9240;SDS011;53485;49.326;9.738;2023-03-19T03:11:46;4.70;;;2.47;;
9240;SDS011;53485;49.326;9.738;2023-03-19T03:14:12;8.37;;;2.50;;
9240;SDS011;53485;49.326;9.738;2023-03-19T03:16:39;5.53;;;2.10;;
9240;SDS011;53485;49.326;9.738;2023-03-19T03:19:05;3.53;;;2.00;;
9240;SDS011;53485;49.326;9.738;2023-03-19T03:21:32;4.67;;;2.27;;
9240;SDS011;53485;49.326;9.738;2023-03-19T03:23:58;2.60;;;2.27;;
9240;SDS011;53485;49.326;9.738;2023-03-19T03:26:24;5.77;;;3.10;;
9240;SDS011;53485;49.326;9.738;2023-03-19T03:28:51;2.87;;;2.57;;
9240;SDS011;53485;49.326;9.738;2023-03-19T03:31:17;3.83;;;3.07;;
9240;SDS011;53485;49.326;9.738;2023-03-19T03:33:44;3.00;;;2.80;;
9240;SDS011;53485;49.326;9.738;2023-03-19T03:36:10;4.63;;;2.70;;
9240;SDS011;53485;49.326;9.738;2023-03-19T03:38:37;5.43;;;3.17;;
9240;SDS011;53485;49.326;9.738;2023-03-19T03:41:03;13.83;;;2.93;;
9240;SDS011;53485;49.326;9.738;2023-03-19T03:43:30;3.80;;;2.00;;
9240;SDS011;53485;49.326;9.738;2023-03-19T03:45:56;3.33;;;2.33;;
9240;SDS011;53485;49.326;9.738;2023-03-19T03:48:23;4.17;;;2.13;;
9240;SDS011;53485;49.326;9.738;2023-03-19T03:50:49;4.30;;;2.27;;
9240;SDS011;53485;49.326;9.738;2023-03-19T03:53:16;5.43;;;2.63;;
9240;SDS011;53485;49.326;9.738;2023-03-19T03:55:42;4.37;;;2.20;;
9240;SDS011;53485;49.326;9.738;2023-03-19T03:58:09;2.73;;;2.33;;
9240;SDS011;53485;49.326;9.738;2023-03-19T04:00:35;3.13;;;1.93;;
9240;SDS011;53485;49.326;9.738;2023-03-19T04:03:01;3.63;;;1.70;;
9240;SDS011;53485;49.326;9.738;2023-03-19T04:05:28;2.77;;;1.67;;
9240;SDS011;53485;49.326;9.738;2023-03-19T04:07:54;3.97;;;1.80;;
9240;SDS011;53485;49.326;9.738;2023-03-19T04:10:21;5.17;;;1.90;;
9240;SDS011;53485;49.326;9.738;2023-03-19T04:12:47;4.57;;;1.50;;
9240;SDS011;53485;49.326;9.738;2023-03-19T04:15:13;2.17;;;1.10;;
9240;SDS011;53485;49.326;9.738;2023-03-19T04:17:40;1.93;;;1.37;;
9240;SDS011;53485;49.326;9.738;2023-03-19T04:20:07;5.23;;;1.60;;
9240;SDS011;53485;49.326;9.738;2023-03-19T04:22:34;2.23;;;1.33;;
9240;SDS011;53485;49.326;9.738;2023-03-19T04:25:00;2.97;;;1.47;;
9240;SDS011;53485;49.326;9.738;2023-03-19T04:27:26;1.67;;;1.40;;
9240;SDS011;53485;49.326;9.738;2023-03-19T04:29:53;1.83;;;1.30;;
9240;SDS011;53485;49.326;9.738;2023-03-19T04:32:20;2.93;;;1.60;;
9240;SDS011;53485;49.326;9.738;2023-03-19T04:34:46;2.53;;;1.57;;
9240;SDS011;53485;49.326;9.738;2023-03-19T04:37:13;4.80;;;1.60;;
9240;SDS011;53485;49.326;9.738;2023-03-19T04:39:39;2.50;;;1.60;;
9240;SDS011;53485;49.326;9.738;2023-03-19T04:42:06;3.67;;;2.57;;
9240;SDS011;53485;49.326;9.738;2023-03-19T04:44:33;2.67;;;1.97;;
9240;SDS011;53485;49.326;9.738;2023-03-19T04:46:59;4.93;;;2.27;;
9240;SDS011;53485;49.326;9.738;2023-03-19T04:49:26;3.40;;;2.23;;
9240;SDS011;53485;49.326;9.738;2023-03-19T04:51:53;6.40;;;2.50;;
9240;SDS011;53485;49.326;9.738;2023-03-19T04:54:19;4.40;;;3.23;;
9240;SDS011;53485;49.326;9.738;2023-03-19T04:56:46;6.27;;;2.43;;
9240;SDS011;53485;49.326;9.738;2023-03-19T04:59:12;5.23;;;3.13;;
9240;SDS011;53485;49.326;9.738;2023-03-19T05:01:39;5.10;;;3.07;;
9240;SDS011;53485;49.326;9.738;2023-03-19T05:04:06;5.20;;;2.87;;
9240;SDS011;53485;49.326;9.738;2023-03-19T05:06:32;5.07;;;3.03;;
9240;SDS011;53485;49.326;9.738;2023-03-19T05:08:58;3.37;;;2.97;;
9240;SDS011;53485;49.326;9.738;2023-03-19T05:11:25;5.47;;;3.33;;
9240;SDS011;53485;49.326;9.738;2023-03-19T05:13:51;4.60;;;4.10;;
9240;SDS011;53485;49.326;9.738;2023-03-19T05:16:18;4.57;;;3.60;;
9240;SDS011;53485;49.326;9.738;2023-03-19T05:18:44;3.93;;;3.40;;
9240;SDS011;53485;49.326;9.738;2023-03-19T05:21:11;6.87;;;3.90;;
9240;SDS011;53485;49.326;9.738;2023-03-19T05:23:37;4.93;;;3.30;;
9240;SDS011;53485;49.326;9.738;2023-03-19T05:26:03;4.03;;;3.53;;
9240;SDS011;53485;49.326;9.738;2023-03-19T05:28:29;4.97;;;3.47;;
9240;SDS011;53485;49.326;9.738;2023-03-19T05:30:56;3.43;;;3.10;;
9240;SDS011;53485;49.326;9.738;2023-03-19T05:33:23;5.13;;;3.77;;
9240;SDS011;53485;49.326;9.738;2023-03-19T05:35:49;6.53;;;3.80;;
9240;SDS011;53485;49.326;9.738;2023-03-19T05:38:15;5.37;;;3.40;;
9240;SDS011;53485;49.326;9.738;2023-03-19T05:40:41;7.80;;;4.10;;
9240;SDS011;53485;49.326;9.738;2023-03-19T05:43:08;5.57;;;3.63;;
9240;SDS011;53485;49.326;9.738;2023-03-19T05:45:34;4.30;;;3.27;;
9240;SDS011;53485;49.326;9.738;2023-03-19T05:48:00;3.77;;;3.03;;
9240;SDS011;53485;49.326;9.738;2023-03-19T05:50:26;6.33;;;3.30;;
9240;SDS011;53485;49.326;9.738;2023-03-19T05:52:53;6.33;;;2.87;;
9240;SDS011;53485;49.326;9.738;2023-03-19T05:55:20;5.23;;;2.83;;
9240;SDS011;53485;49.326;9.738;2023-03-19T05:57:46;4.43;;;2.83;;
9240;SDS011;53485;49.326;9.738;2023-03-19T06:00:13;6.37;;;2.73;;
9240;SDS011;53485;49.326;9.738;2023-03-19T06:02:39;2.33;;;2.13;;
9240;SDS011;53485;49.326;9.738;2023-03-19T06:05:06;5.57;;;2.23;;
9240;SDS011;53485;49.326;9.738;2023-03-19T06:07:32;2.93;;;2.10;;
9240;SDS011;53485;49.326;9.738;2023-03-19T06:09:59;3.63;;;2.13;;
9240;SDS011;53485;49.326;9.738;2023-03-19T06:12:25;5.77;;;1.90;;
9240;SDS011;53485;49.326;9.738;2023-03-19T06:14:52;2.33;;;1.90;;
9240;SDS011;53485;49.326;9.738;2023-03-19T06:17:18;3.03;;;1.97;;
9240;SDS011;53485;49.326;9.738;2023-03-19T06:19:45;2.07;;;1.80;;
9240;SDS011;53485;49.326;9.738;2023-03-19T06:22:12;1.70;;;1.60;;
9240;SDS011;53485;49.326;9.738;2023-03-19T06:24:38;2.90;;;1.83;;
9240;SDS011;53485;49.326;9.738;2023-03-19T06:27:05;2.33;;;2.13;;
9240;SDS011;53485;49.326;9.738;2023-03-19T06:29:31;2.00;;;1.80;;
9240;SDS011;53485;49.326;9.738;2023-03-19T06:31:59;2.07;;;1.73;;
9240;SDS011;53485;49.326;9.738;2023-03-19T06:34:24;3.57;;;1.77;;
9240;SDS011;53485;49.326;9.738;2023-03-19T06:36:50;3.80;;;1.70;;
9240;SDS011;53485;49.326;9.738;2023-03-19T06:39:16;2.57;;;2.17;;
9240;SDS011;53485;49.326;9.738;2023-03-19T06:41:43;3.93;;;1.97;;
9240;SDS011;53485;49.326;9.738;2023-03-19T06:44:09;3.60;;;2.30;;
9240;SDS011;53485;49.326;9.738;2023-03-19T06:46:36;3.20;;;2.37;;
9240;SDS011;53485;49.326;9.738;2023-03-19T06:49:02;1.70;;;1.50;;
9240;SDS011;53485;49.326;9.738;2023-03-19T06:51:29;2.50;;;2.30;;
9240;SDS011;53485;49.326;9.738;2023-03-19T06:53:55;3.40;;;2.17;;
9240;SDS011;53485;49.326;9.738;2023-03-19T06:56:22;3.33;;;2.50;;
9240;SDS011;53485;49.326;9.738;2023-03-19T06:58:49;3.57;;;2.17;;
9240;SDS011;53485;49.326;9.738;2023-03-19T07:01:15;3.37;;;2.63;;
9240;SDS011;53485;49.326;9.738;2023-03-19T07:03:42;3.40;;;3.10;;
9240;SDS011;53485;49.326;9.738;2023-03-19T07:06:08;4.93;;;2.70;;
9240;SDS011;53485;49.326;9.738;2023-03-19T07:08:35;2.47;;;2.27;;
9240;SDS011;53485;49.326;9.738;2023-03-19T07:11:03;5.27;;;2.00;;
9240;SDS011;53485;49.326;9.738;2023-03-19T07:13:29;5.90;;;2.47;;
9240;SDS011;53485;49.326;9.738;2023-03-19T07:15:55;3.50;;;2.00;;
9240;SDS011;53485;49.326;9.738;2023-03-19T07:18:22;2.70;;;2.13;;
9240;SDS011;53485;49.326;9.738;2023-03-19T07:20:48;4.70;;;2.40;;
9240;SDS011;53485;49.326;9.738;2023-03-19T07:23:15;3.97;;;2.10;;
9240;SDS011;53485;49.326;9.738;2023-03-19T07:25:42;2.80;;;2.50;;
9240;SDS011;53485;49.326;9.738;2023-03-19T07:28:08;2.50;;;2.30;;
9240;SDS011;53485;49.326;9.738;2023-03-19T07:30:35;2.77;;;2.57;;
9240;SDS011;53485;49.326;9.738;2023-03-19T07:33:01;3.67;;;2.63;;
9240;SDS011;53485;49.326;9.738;2023-03-19T07:35:28;3.53;;;3.00;;
9240;SDS011;53485;49.326;9.738;2023-03-19T07:37:54;4.20;;;2.60;;
9240;SDS011;53485;49.326;9.738;2023-03-19T07:40:21;3.87;;;2.87;;
9240;SDS011;53485;49.326;9.738;2023-03-19T07:42:47;2.43;;;2.23;;
9240;SDS011;53485;49.326;9.738;2023-03-19T07:45:14;8.43;;;4.30;;
9240;SDS011;53485;49.326;9.738;2023-03-19T07:47:41;5.37;;;3.00;;
9240;SDS011;53485;49.326;9.738;2023-03-19T07:50:07;2.93;;;2.60;;
9240;SDS011;53485;49.326;9.738;2023-03-19T07:52:34;3.43;;;2.10;;
9240;SDS011;53485;49.326;9.738;2023-03-19T07:55:00;5.47;;;2.43;;
9240;SDS011;53485;49.326;9.738;2023-03-19T07:57:27;3.17;;;1.70;;
9240;SDS011;53485;49.326;9.738;2023-03-19T07:59:54;4.47;;;2.03;;
9240;SDS011;53485;49.326;9.738;2023-03-19T08:02:20;2.27;;;2.07;;
9240;SDS011;53485;49.326;9.738;2023-03-19T08:04:47;3.93;;;1.83;;
9240;SDS011;53485;49.326;9.738;2023-03-19T08:07:13;1.70;;;1.60;;
9240;SDS011;53485;49.326;9.738;2023-03-19T08:09:40;8.60;;;4.67;;
9240;SDS011;53485;49.326;9.738;2023-03-19T08:12:07;12.10;;;6.40;;
9240;SDS011;53485;49.326;9.738;2023-03-19T08:14:33;1.70;;;1.60;;
9240;SDS011;53485;49.326;9.738;2023-03-19T08:16:59;2.17;;;1.40;;
9240;SDS011;53485;49.326;9.738;2023-03-19T08:19:26;4.47;;;1.53;;
9240;SDS011;53485;49.326;9.738;2023-03-19T08:21:52;2.63;;;1.53;;
9240;SDS011;53485;49.326;9.738;2023-03-19T08:24:19;3.03;;;1.70;;
9240;SDS011;53485;49.326;9.738;2023-03-19T08:26:45;2.50;;;1.93;;
9240;SDS011;53485;49.326;9.738;2023-03-19T08:29:12;2.07;;;1.47;;
9240;SDS011;53485;49.326;9.738;2023-03-19T08:31:38;2.60;;;1.77;;
9240;SDS011;53485;49.326;9.738;2023-03-19T08:34:06;2.77;;;1.50;;
9240;SDS011;53485;49.326;9.738;2023-03-19T08:36:31;2.93;;;2.23;;
9240;SDS011;53485;49.326;9.738;2023-03-19T08:38:58;4.47;;;2.10;;
9240;SDS011;53485;49.326;9.738;2023-03-19T08:41:24;3.47;;;1.57;;
9240;SDS011;53485;49.326;9.738;2023-03-19T08:43:50;5.33;;;1.80;;
9240;SDS011;53485;49.326;9.738;2023-03-19T08:46:17;3.57;;;2.07;;
9240;SDS011;53485;49.326;9.738;2023-03-19T08:48:44;4.40;;;2.20;;
9240;SDS011;53485;49.326;9.738;2023-03-19T08:51:10;3.00;;;1.90;;
9240;SDS011;53485;49.326;9.738;2023-03-19T08:53:37;2.97;;;2.13;;
9240;SDS011;53485;49.326;9.738;2023-03-19T08:56:03;2.63;;;2.07;;
9240;SDS011;53485;49.326;9.738;2023-03-19T08:58:29;3.23;;;1.93;;
9240;SDS011;53485;49.326;9.738;2023-03-19T09:01:01;3.20;;;2.83;;
9240;SDS011;53485;49.326;9.738;2023-03-19T09:03:26;3.00;;;2.20;;
9240;SDS011;53485;49.326;9.738;2023-03-19T09:05:53;2.47;;;1.80;;
9240;SDS011;53485;49.326;9.738;2023-03-19T09:08:19;2.30;;;1.90;;
9240;SDS011;53485;49.326;9.738;2023-03-19T09:10:46;3.90;;;1.97;;
9240;SDS011;53485;49.326;9.738;2023-03-19T09:13:12;3.87;;;2.10;;
9240;SDS011;53485;49.326;9.738;2023-03-19T09:15:39;3.00;;;1.87;;
9240;SDS011;53485;49.326;9.738;2023-03-19T09:18:05;2.63;;;1.80;;
9240;SDS011;53485;49.326;9.738;2023-03-19T09:20:32;1.90;;;1.70;;
9240;SDS011;53485;49.326;9.738;2023-03-19T09:22:59;3.67;;;1.90;;
9240;SDS011;53485;49.326;9.738;2023-03-19T09:25:25;4.37;;;1.73;;
9240;SDS011;53485;49.326;9.738;2023-03-19T09:27:52;1.97;;;1.47;;
9240;SDS011;53485;49.326;9.738;2023-03-19T09:30:19;3.63;;;1.63;;
9240;SDS011;53485;49.326;9.738;2023-03-19T09:32:45;2.10;;;1.83;;
9240;SDS011;53485;49.326;9.738;2023-03-19T09:35:12;5.20;;;2.03;;
9240;SDS011;53485;49.326;9.738;2023-03-19T09:37:38;3.67;;;1.73;;
9240;SDS011;53485;49.326;9.738;2023-03-19T09:40:05;1.60;;;1.50;;
9240;SDS011;53485;49.326;9.738;2023-03-19T09:42:44;3.60;;;1.60;;
9240;SDS011;53485;49.326;9.738;2023-03-19T09:45:11;1.60;;;1.30;;
9240;SDS011;53485;49.326;9.738;2023-03-19T09:47:37;2.70;;;1.30;;
9240;SDS011;53485;49.326;9.738;2023-03-19T09:50:04;2.03;;;1.37;;
9240;SDS011;53485;49.326;9.738;2023-03-19T09:52:50;2.70;;;1.53;;
9240;SDS011;53485;49.326;9.738;2023-03-19T09:55:24;1.90;;;1.60;;
9240;SDS011;53485;49.326;9.738;2023-03-19T09:57:45;2.67;;;1.30;;
9240;SDS011;53485;49.326;9.738;2023-03-19T10:00:18;2.33;;;1.40;;
9240;SDS011;53485;49.326;9.738;2023-03-19T10:02:40;1.53;;;1.43;;
9240;SDS011;53485;49.326;9.738;2023-03-19T10:07:47;1.53;;;1.30;;
9240;SDS011;53485;49.326;9.738;2023-03-19T10:10:17;1.53;;;1.10;;
9240;SDS011;53485;49.326;9.738;2023-03-19T10:15:27;2.33;;;1.23;;
9240;SDS011;53485;49.326;9.738;2023-03-19T10:20:25;1.83;;;1.20;;
9240;SDS011;53485;49.326;9.738;2023-03-19T10:22:49;2.17;;;1.30;;
9240;SDS011;53485;49.326;9.738;2023-03-19T10:25:19;1.27;;;1.00;;
9240;SDS011;53485;49.326;9.738;2023-03-19T10:27:44;3.50;;;1.40;;
9240;SDS011;53485;49.326;9.738;2023-03-19T10:30:12;3.13;;;1.20;;
9240;SDS011;53485;49.326;9.738;2023-03-19T10:32:42;2.00;;;1.17;;
9240;SDS011;53485;49.326;9.738;2023-03-19T10:35:11;2.07;;;1.23;;
9240;SDS011;53485;49.326;9.738;2023-03-19T10:37:35;1.60;;;1.00;;
9240;SDS011;53485;49.326;9.738;2023-03-19T10:40:00;1.63;;;1.17;;
9240;SDS011;53485;49.326;9.738;2023-03-19T10:45:00;2.90;;;1.10;;
9240;SDS011;53485;49.326;9.738;2023-03-19T10:47:25;1.10;;;1.00;;
9240;SDS011;53485;49.326;9.738;2023-03-19T10:49:52;1.77;;;1.00;;
9240;SDS011;53485;49.326;9.738;2023-03-19T10:52:23;0.80;;;0.70;;
9240;SDS011;53485;49.326;9.738;2023-03-19T10:54:47;1.37;;;0.90;;
9240;SDS011;53485;49.326;9.738;2023-03-19T10:57:21;2.17;;;1.00;;
9240;SDS011;53485;49.326;9.738;2023-03-19T10:59:46;0.90;;;0.80;;
9240;SDS011;53485;49.326;9.738;2023-03-19T11:02:15;1.73;;;1.00;;
9240;SDS011;53485;49.326;9.738;2023-03-19T11:04:39;1.27;;;0.70;;
9240;SDS011;53485;49.326;9.738;2023-03-19T11:07:09;0.90;;;0.80;;
9240;SDS011;53485;49.326;9.738;2023-03-19T11:09:36;0.83;;;0.80;;
9240;SDS011;53485;49.326;9.738;2023-03-19T11:12:20;1.37;;;0.83;;
9240;SDS011;53485;49.326;9.738;2023-03-19T11:14:46;1.90;;;1.00;;
9240;SDS011;53485;49.326;9.738;2023-03-19T11:17:17;1.87;;;1.10;;
9240;SDS011;53485;49.326;9.738;2023-03-19T11:19:42;1.53;;;1.00;;
9240;SDS011;53485;49.326;9.738;2023-03-19T11:22:08;1.47;;;0.90;;
9240;SDS011;53485;49.326;9.738;2023-03-19T11:24:35;1.07;;;0.80;;
9240;SDS011;53485;49.326;9.738;2023-03-19T11:27:01;1.87;;;1.00;;
9240;SDS011;53485;49.326;9.738;2023-03-19T11:29:28;1.67;;;1.10;;
9240;SDS011;53485;49.326;9.738;2023-03-19T11:32:12;3.00;;;1.00;;
9240;SDS011;53485;49.326;9.738;2023-03-19T11:34:39;2.53;;;1.00;;
9240;SDS011;53485;49.326;9.738;2023-03-19T11:37:11;1.93;;;0.90;;
9240;SDS011;53485;49.326;9.738;2023-03-19T11:40:00;2.57;;;1.27;;
9240;SDS011;53485;49.326;9.738;2023-03-19T11:42:28;1.80;;;0.80;;
9240;SDS011;53485;49.326;9.738;2023-03-19T11:45:09;1.50;;;0.80;;
9240;SDS011;53485;49.326;9.738;2023-03-19T11:47:36;2.50;;;0.90;;
9240;SDS011;53485;49.326;9.738;2023-03-19T11:55:32;1.97;;;0.70;;
9240;SDS011;53485;49.326;9.738;2023-03-19T12:00:33;1.93;;;0.90;;
9240;SDS011;53485;49.326;9.738;2023-03-19T12:05:30;1.70;;;0.90;;
9240;SDS011;53485;49.326;9.738;2023-03-19T12:10:30;1.97;;;0.90;;
9240;SDS011;53485;49.326;9.738;2023-03-19T12:12:59;2.00;;;0.80;;
9240;SDS011;53485;49.326;9.738;2023-03-19T12:15:25;1.50;;;0.80;;
9240;SDS011;53485;49.326;9.738;2023-03-19T12:17:55;1.60;;;0.70;;
9240;SDS011;53485;49.326;9.738;2023-03-19T12:20:23;1.47;;;0.70;;
9240;SDS011;53485;49.326;9.738;2023-03-19T12:22:52;0.73;;;0.60;;
9240;SDS011;53485;49.326;9.738;2023-03-19T12:25:19;2.77;;;0.80;;
9240;SDS011;53485;49.326;9.738;2023-03-19T12:27:47;3.77;;;0.70;;
9240;SDS011;53485;49.326;9.738;2023-03-19T12:30:17;1.43;;;0.70;;
9240;SDS011;53485;49.326;9.738;2023-03-19T12:32:45;1.30;;;0.80;;
9240;SDS011;53485;49.326;9.738;2023-03-19T12:35:10;1.50;;;0.87;;
9240;SDS011;53485;49.326;9.738;2023-03-19T12:38:09;1.07;;;0.80;;
9240;SDS011;53485;49.326;9.738;2023-03-19T12:40:56;0.87;;;0.77;;
9240;SDS011;53485;49.326;9.738;2023-03-19T12:43:05;1.43;;;0.87;;
9240;SDS011;53485;49.326;9.738;2023-03-19T12:45:30;2.67;;;0.80;;
9240;SDS011;53485;49.326;9.738;2023-03-19T12:48:01;1.37;;;0.90;;
9240;SDS011;53485;49.326;9.738;2023-03-19T12:50:24;3.33;;;0.80;;
9240;SDS011;53485;49.326;9.738;2023-03-19T12:52:51;1.10;;;0.83;;
9240;SDS011;53485;49.326;9.738;2023-03-19T12:55:18;1.30;;;0.70;;
9240;SDS011;53485;49.326;9.738;2023-03-19T12:57:48;1.67;;;0.70;;
9240;SDS011;53485;49.326;9.738;2023-03-19T13:00:18;1.13;;;0.80;;
9240;SDS011;53485;49.326;9.738;2023-03-19T13:02:43;1.70;;;0.97;;
9240;SDS011;53485;49.326;9.738;2023-03-19T13:05:10;0.90;;;0.80;;
9240;SDS011;53485;49.326;9.738;2023-03-19T13:07:39;3.47;;;0.90;;
9240;SDS011;53485;49.326;9.738;2023-03-19T13:10:04;1.33;;;0.73;;
9240;SDS011;53485;49.326;9.738;2023-03-19T13:12:29;2.17;;;0.80;;
9240;SDS011;53485;49.326;9.738;2023-03-19T13:14:59;2.20;;;0.80;;
9240;SDS011;53485;49.326;9.738;2023-03-19T13:17:33;1.30;;;0.87;;
9240;SDS011;53485;49.326;9.738;2023-03-19T13:19:56;2.53;;;0.90;;
9240;SDS011;53485;49.326;9.738;2023-03-19T13:22:24;1.20;;;1.00;;
9240;SDS011;53485;49.326;9.738;2023-03-19T13:24:49;1.77;;;1.20;;
9240;SDS011;53485;49.326;9.738;2023-03-19T13:27:20;1.20;;;1.00;;
9240;SDS011;53485;49.326;9.738;2023-03-19T13:29:51;2.80;;;1.20;;
9240;SDS011;53485;49.326;9.738;2023-03-19T13:32:22;1.40;;;1.10;;
9240;SDS011;53485;49.326;9.738;2023-03-19T13:34:47;2.47;;;1.00;;
9240;SDS011;53485;49.326;9.738;2023-03-19T13:37:14;1.60;;;0.90;;
9240;SDS011;53485;49.326;9.738;2023-03-19T13:39:40;3.43;;;1.27;;
9240;SDS011;53485;49.326;9.738;2023-03-19T13:42:09;2.73;;;0.83;;
9240;SDS011;53485;49.326;9.738;2023-03-19T13:44:35;2.37;;;0.90;;
9240;SDS011;53485;49.326;9.738;2023-03-19T13:47:02;1.03;;;0.93;;
9240;SDS011;53485;49.326;9.738;2023-03-19T13:49:28;3.23;;;1.20;;
9240;SDS011;53485;49.326;9.738;2023-03-19T13:51:55;4.40;;;1.03;;
9240;SDS011;53485;49.326;9.738;2023-03-19T13:54:19;0.80;;;0.80;;
9240;SDS011;53485;49.326;9.738;2023-03-19T13:59:22;1.60;;;0.90;;
9240;SDS011;53485;49.326;9.738;2023-03-19T14:01:45;3.30;;;0.67;;
9240;SDS011;53485;49.326;9.738;2023-03-19T14:04:14;2.03;;;0.80;;
9240;SDS011;53485;49.326;9.738;2023-03-19T14:06:41;1.00;;;0.90;;
9240;SDS011;53485;49.326;9.738;2023-03-19T14:11:39;3.20;;;1.10;;
9240;SDS011;53485;49.326;9.738;2023-03-19T14:14:06;2.07;;;1.00;;
9240;SDS011;53485;49.326;9.738;2023-03-19T14:16:33;2.43;;;0.80;;
9240;SDS011;53485;49.326;9.738;2023-03-19T14:19:00;5.17;;;1.20;;
9240;SDS011;53485;49.326;9.738;2023-03-19T14:23:56;2.40;;;1.10;;
9240;SDS011;53485;49.326;9.738;2023-03-19T14:26:22;1.93;;;1.10;;
9240;SDS011;53485;49.326;9.738;2023-03-19T14:28:54;2.00;;;1.10;;
9240;SDS011;53485;49.326;9.738;2023-03-19T14:31:25;2.60;;;1.10;;
9240;SDS011;53485;49.326;9.738;2023-03-19T14:33:51;3.57;;;1.20;;
9240;SDS011;53485;49.326;9.738;2023-03-19T14:36:16;3.40;;;1.07;;
9240;SDS011;53485;49.326;9.738;2023-03-19T14:38:49;3.20;;;1.10;;
9240;SDS011;53485;49.326;9.738;2023-03-19T14:41:14;1.93;;;1.10;;
9240;SDS011;53485;49.326;9.738;2023-03-19T14:46:28;2.97;;;1.43;;
9240;SDS011;53485;49.326;9.738;2023-03-19T14:49:16;2.70;;;1.37;;
9240;SDS011;53485;49.326;9.738;2023-03-19T14:54:17;1.23;;;0.93;;
9240;SDS011;53485;49.326;9.738;2023-03-19T14:56:39;2.80;;;1.10;;
9240;SDS011;53485;49.326;9.738;2023-03-19T14:59:04;1.27;;;1.10;;
9240;SDS011;53485;49.326;9.738;2023-03-19T15:01:32;3.23;;;1.10;;
9240;SDS011;53485;49.326;9.738;2023-03-19T15:03:59;2.00;;;1.07;;
9240;SDS011;53485;49.326;9.738;2023-03-19T15:06:26;2.40;;;1.40;;
9240;SDS011;53485;49.326;9.738;2023-03-19T15:08:51;2.07;;;1.20;;
9240;SDS011;53485;49.326;9.738;2023-03-19T15:11:23;1.70;;;1.03;;
9240;SDS011;53485;49.326;9.738;2023-03-19T15:13:55;4.77;;;1.50;;
9240;SDS011;53485;49.326;9.738;2023-03-19T15:18:49;2.03;;;1.37;;
9240;SDS011;53485;49.326;9.738;2023-03-19T15:21:16;7.90;;;1.50;;
9240;SDS011;53485;49.326;9.738;2023-03-19T15:23:44;1.57;;;1.27;;
9240;SDS011;53485;49.326;9.738;2023-03-19T15:26:08;1.40;;;1.30;;
9240;SDS011;53485;49.326;9.738;2023-03-19T15:31:07;2.63;;;1.30;;
9240;SDS011;53485;49.326;9.738;2023-03-19T15:33:35;1.37;;;1.03;;
9240;SDS011;53485;49.326;9.738;2023-03-19T15:36:02;1.73;;;1.20;;
9240;SDS011;53485;49.326;9.738;2023-03-19T15:38:28;3.90;;;1.43;;
9240;SDS011;53485;49.326;9.738;2023-03-19T15:40:53;2.63;;;1.20;;